Mendota, MN

3:52 AM CST on March 03, 2015 (GMT -0600)
Highland Park-Miss. Rvr Blvd & Cleveland | Change Station
CLOSE
Current Station
Personal Weather Station
Location: St. Paul, MN
Elevation: 841 ft
Nearby Weather Stations
Active Advisory: Winter Weather Advisory

Elev 841 ft 44.90 °N, 93.19 °W | Updated 17 seconds ago

Overcast
Overcast
21.0 °F
Feels Like 21 °F
N
3.0
Wind Variable Wind from SSE
Gusts 9.0 mph

Today
High -- | Low -- °F
--% Chance of Precip.
Yesterday
High -- | Low -- °F
Precip. -- in
6:47 AM 6:02 PM
Waxing Gibbous, 95% visible
Pressure 29.90 in
Visibility 10.0 miles
Clouds Overcast 7500 ft
Windchill 21 °F
Dew Point 20 °F
Humidity 98%
Rainfall 0.00 in
Snow Depth Not available.
UV 0 out of 12
Pollen .50 out of 12
Air Quality Not available.
Flu Activity Not available.
METAR KMSP 030853Z 13005KT 10SM OVC075 M06/M12 A2990

More Conditions Fewer Conditions

Pressure 29.90 in
Visibility 10.0 miles
Clouds Overcast 7500 ft
Windchill 21 °F
Dew Point 20 °F
Humidity 98%
Rainfall 0.00 in
Snow Depth Not available.
UV 0 out of 12
Pollen .50 out of 12
Air Quality Not available.
Flu Activity Not available.
METAR KMSP 030853Z 13005KT 10SM OVC075 M06/M12 A2990

More Conditions Fewer Conditions

10-Day Weather Forecast

Almanac

Astronomy

Mar. 03, 2015 Rise Set
Actual Time
Civil Twilight
Nautical Twilight
Astronomical Twilight
Moon
Length of Visible Light
Length of Day
Tomorrow will be .
, % of the Moon is Illuminated

Today's Extremes

State Highs State Lows

Community

WunderPhotos

Upload Photos

1,802,075 photos uploaded!

WunderBlogs® & News

Nearby

Air Quality

  Air Quality AQ Index Pollutant
Not available.

Snow Depth

Station Depth Elevation

Earthquake Activity

City Distance Mag. Time & Date
Minimum magnitude displayed is 2.5.

Coastal Water Temperatures

Place Temperature

Nearby Weather Stations

Winter Weather Advisory
Statement as of 9:45 PM CST on March 02, 2015

... Winter Weather Advisory remains in effect from 3 am to 9 PM
CST Tuesday...

* timing... snow will develop early Tuesday morning and taper off
Tuesday afternoon... as northwest winds increase behind a cold
front. The strong winds will produce areas of blowing snow
through Tuesday evening.

* Snow accumulations... 2 to 4 inches.

* Winds/visibility... wind gusts around 35 mph will produce areas
of blowing snow and visibilities less than one mile in open
areas.

* Impacts... travel may be difficult. The morning and afternoon
rush should be impacted by the snow and blowing snow.

Precautionary/preparedness actions...

A Winter Weather Advisory for snow and blowing snow means that
visibilities will be limited due to a combination of falling and
blowing snow. Use caution when traveling... especially in open
areas.